sensor_id;sensor_type;location;lat;lon;timestamp;pressure;altitude;pressure_sealevel;temperature
68743;BMP180;55725;42.758;26.702;2022-12-07T00:00:15;99336.00;;;7.10
68743;BMP180;55725;42.758;26.702;2022-12-07T00:01:56;99334.00;;;7.10
68743;BMP180;55725;42.758;26.702;2022-12-07T00:03:36;99326.00;;;7.30
68743;BMP180;55725;42.758;26.702;2022-12-07T00:05:17;99324.00;;;7.50
68743;BMP180;55725;42.758;26.702;2022-12-07T00:06:57;99338.00;;;7.30
68743;BMP180;55725;42.758;26.702;2022-12-07T00:08:38;99336.00;;;7.00
68743;BMP180;55725;42.758;26.702;2022-12-07T00:10:18;99334.00;;;7.10
68743;BMP180;55725;42.758;26.702;2022-12-07T00:11:59;99336.00;;;7.40
68743;BMP180;55725;42.758;26.702;2022-12-07T00:13:39;99342.00;;;7.40
68743;BMP180;55725;42.758;26.702;2022-12-07T00:15:20;99333.00;;;7.50
68743;BMP180;55725;42.758;26.702;2022-12-07T00:17:00;99344.00;;;7.60
68743;BMP180;55725;42.758;26.702;2022-12-07T00:18:41;99333.00;;;7.50
68743;BMP180;55725;42.758;26.702;2022-12-07T00:20:21;99335.00;;;7.20
68743;BMP180;55725;42.758;26.702;2022-12-07T00:22:02;99337.00;;;7.40
68743;BMP180;55725;42.758;26.702;2022-12-07T00:23:43;99341.00;;;7.40
68743;BMP180;55725;42.758;26.702;2022-12-07T00:25:23;99343.00;;;7.10
68743;BMP180;55725;42.758;26.702;2022-12-07T00:27:04;99337.00;;;7.40
68743;BMP180;55725;42.758;26.702;2022-12-07T00:28:45;99347.00;;;7.20
68743;BMP180;55725;42.758;26.702;2022-12-07T00:30:26;99344.00;;;7.10
68743;BMP180;55725;42.758;26.702;2022-12-07T00:32:06;99347.00;;;7.40
68743;BMP180;55725;42.758;26.702;2022-12-07T00:33:46;99347.00;;;8.00
68743;BMP180;55725;42.758;26.702;2022-12-07T00:35:27;99347.00;;;8.10
68743;BMP180;55725;42.758;26.702;2022-12-07T00:37:07;99337.00;;;8.10
68743;BMP180;55725;42.758;26.702;2022-12-07T00:38:47;99336.00;;;7.70
68743;BMP180;55725;42.758;26.702;2022-12-07T00:40:28;99339.00;;;7.50
68743;BMP180;55725;42.758;26.702;2022-12-07T00:42:08;99335.00;;;7.60
68743;BMP180;55725;42.758;26.702;2022-12-07T00:43:49;99339.00;;;7.70
68743;BMP180;55725;42.758;26.702;2022-12-07T00:45:29;99344.00;;;7.80
68743;BMP180;55725;42.758;26.702;2022-12-07T00:47:09;99346.00;;;7.80
68743;BMP180;55725;42.758;26.702;2022-12-07T00:48:50;99333.00;;;7.80
68743;BMP180;55725;42.758;26.702;2022-12-07T00:50:31;99331.00;;;7.80
68743;BMP180;55725;42.758;26.702;2022-12-07T00:52:11;99334.00;;;7.80
68743;BMP180;55725;42.758;26.702;2022-12-07T00:53:52;99335.00;;;7.60
68743;BMP180;55725;42.758;26.702;2022-12-07T00:55:33;99335.00;;;7.80
68743;BMP180;55725;42.758;26.702;2022-12-07T00:57:13;99334.00;;;7.80
68743;BMP180;55725;42.758;26.702;2022-12-07T00:58:55;99337.00;;;7.60
68743;BMP180;55725;42.758;26.702;2022-12-07T01:00:36;99330.00;;;7.70
68743;BMP180;55725;42.758;26.702;2022-12-07T01:02:16;99318.00;;;7.60
68743;BMP180;55725;42.758;26.702;2022-12-07T01:03:57;99326.00;;;7.60
68743;BMP180;55725;42.758;26.702;2022-12-07T01:05:37;99327.00;;;7.40
68743;BMP180;55725;42.758;26.702;2022-12-07T01:07:17;99328.00;;;7.30
68743;BMP180;55725;42.758;26.702;2022-12-07T01:08:58;99322.00;;;7.40
68743;BMP180;55725;42.758;26.702;2022-12-07T01:10:38;99313.00;;;7.50
68743;BMP180;55725;42.758;26.702;2022-12-07T01:12:19;99322.00;;;7.40
68743;BMP180;55725;42.758;26.702;2022-12-07T01:13:59;99314.00;;;7.50
68743;BMP180;55725;42.758;26.702;2022-12-07T01:15:41;99304.00;;;7.30
68743;BMP180;55725;42.758;26.702;2022-12-07T01:17:21;99304.00;;;7.40
68743;BMP180;55725;42.758;26.702;2022-12-07T01:19:01;99308.00;;;7.40
68743;BMP180;55725;42.758;26.702;2022-12-07T01:20:44;99304.00;;;7.60
68743;BMP180;55725;42.758;26.702;2022-12-07T01:22:24;99297.00;;;7.50
68743;BMP180;55725;42.758;26.702;2022-12-07T01:24:05;99294.00;;;7.30
68743;BMP180;55725;42.758;26.702;2022-12-07T01:25:51;99297.00;;;7.40
68743;BMP180;55725;42.758;26.702;2022-12-07T01:27:33;99304.00;;;7.50
68743;BMP180;55725;42.758;26.702;2022-12-07T01:29:14;99304.00;;;7.60
68743;BMP180;55725;42.758;26.702;2022-12-07T01:30:55;99288.00;;;7.50
68743;BMP180;55725;42.758;26.702;2022-12-07T01:32:36;99289.00;;;7.40
68743;BMP180;55725;42.758;26.702;2022-12-07T01:34:16;99286.00;;;7.40
68743;BMP180;55725;42.758;26.702;2022-12-07T01:36:06;99278.00;;;7.60
68743;BMP180;55725;42.758;26.702;2022-12-07T01:37:47;99277.00;;;7.60
68743;BMP180;55725;42.758;26.702;2022-12-07T01:39:27;99275.00;;;7.60
68743;BMP180;55725;42.758;26.702;2022-12-07T01:41:08;99276.00;;;7.60
68743;BMP180;55725;42.758;26.702;2022-12-07T01:42:48;99285.00;;;7.40
68743;BMP180;55725;42.758;26.702;2022-12-07T01:44:29;99271.00;;;7.50
68743;BMP180;55725;42.758;26.702;2022-12-07T01:46:13;99273.00;;;7.40
68743;BMP180;55725;42.758;26.702;2022-12-07T01:47:53;99268.00;;;7.60
68743;BMP180;55725;42.758;26.702;2022-12-07T01:49:36;99270.00;;;7.50
68743;BMP180;55725;42.758;26.702;2022-12-07T01:51:17;99268.00;;;7.60
68743;BMP180;55725;42.758;26.702;2022-12-07T01:52:57;99272.00;;;7.60
68743;BMP180;55725;42.758;26.702;2022-12-07T02:01:32;99274.00;;;7.60
68743;BMP180;55725;42.758;26.702;2022-12-07T02:03:35;99270.00;;;7.60
68743;BMP180;55725;42.758;26.702;2022-12-07T02:05:14;99267.00;;;7.50
68743;BMP180;55725;42.758;26.702;2022-12-07T02:06:54;99270.00;;;7.30
68743;BMP180;55725;42.758;26.702;2022-12-07T02:08:35;99276.00;;;7.30
68743;BMP180;55725;42.758;26.702;2022-12-07T02:10:16;99266.00;;;7.50
68743;BMP180;55725;42.758;26.702;2022-12-07T02:11:57;99261.00;;;7.30
68743;BMP180;55725;42.758;26.702;2022-12-07T02:13:38;99266.00;;;7.30
68743;BMP180;55725;42.758;26.702;2022-12-07T02:15:20;99262.00;;;7.30
68743;BMP180;55725;42.758;26.702;2022-12-07T02:17:08;99258.00;;;7.30
68743;BMP180;55725;42.758;26.702;2022-12-07T02:18:57;99263.00;;;7.10
68743;BMP180;55725;42.758;26.702;2022-12-07T02:20:45;99264.00;;;6.90
68743;BMP180;55725;42.758;26.702;2022-12-07T02:22:35;99252.00;;;7.00
68743;BMP180;55725;42.758;26.702;2022-12-07T02:31:50;99262.00;;;6.90
68743;BMP180;55725;42.758;26.702;2022-12-07T02:33:36;99271.00;;;6.90
68743;BMP180;55725;42.758;26.702;2022-12-07T02:37:00;99264.00;;;6.30
68743;BMP180;55725;42.758;26.702;2022-12-07T02:38:46;99256.00;;;5.90
68743;BMP180;55725;42.758;26.702;2022-12-07T02:40:35;99255.00;;;6.30
68743;BMP180;55725;42.758;26.702;2022-12-07T02:42:17;99256.00;;;6.00
68743;BMP180;55725;42.758;26.702;2022-12-07T02:44:02;99250.00;;;5.70
68743;BMP180;55725;42.758;26.702;2022-12-07T02:45:44;99249.00;;;5.40
68743;BMP180;55725;42.758;26.702;2022-12-07T02:47:26;99248.00;;;5.80
68743;BMP180;55725;42.758;26.702;2022-12-07T02:49:07;99255.00;;;5.80
68743;BMP180;55725;42.758;26.702;2022-12-07T02:50:49;99254.00;;;5.30
68743;BMP180;55725;42.758;26.702;2022-12-07T02:52:30;99255.00;;;5.50
68743;BMP180;55725;42.758;26.702;2022-12-07T02:54:14;99256.00;;;5.80
68743;BMP180;55725;42.758;26.702;2022-12-07T02:55:54;99255.00;;;5.70
68743;BMP180;55725;42.758;26.702;2022-12-07T02:57:40;99246.00;;;5.60
68743;BMP180;55725;42.758;26.702;2022-12-07T03:03:09;99236.00;;;6.00
68743;BMP180;55725;42.758;26.702;2022-12-07T03:06:37;99238.00;;;5.80
68743;BMP180;55725;42.758;26.702;2022-12-07T03:10:18;99238.00;;;6.20
68743;BMP180;55725;42.758;26.702;2022-12-07T03:12:01;99239.00;;;6.20
68743;BMP180;55725;42.758;26.702;2022-12-07T03:13:59;99238.00;;;6.20
68743;BMP180;55725;42.758;26.702;2022-12-07T03:15:55;99242.00;;;6.00
68743;BMP180;55725;42.758;26.702;2022-12-07T03:17:36;99240.00;;;5.70
68743;BMP180;55725;42.758;26.702;2022-12-07T03:19:20;99242.00;;;5.80
68743;BMP180;55725;42.758;26.702;2022-12-07T03:21:04;99240.00;;;5.40
68743;BMP180;55725;42.758;26.702;2022-12-07T03:22:45;99236.00;;;6.10
68743;BMP180;55725;42.758;26.702;2022-12-07T03:24:27;99238.00;;;6.10
68743;BMP180;55725;42.758;26.702;2022-12-07T03:26:09;99237.00;;;5.70
68743;BMP180;55725;42.758;26.702;2022-12-07T03:27:54;99241.00;;;5.80
68743;BMP180;55725;42.758;26.702;2022-12-07T03:29:43;99238.00;;;5.80
68743;BMP180;55725;42.758;26.702;2022-12-07T03:31:28;99235.00;;;6.00
68743;BMP180;55725;42.758;26.702;2022-12-07T03:33:11;99238.00;;;6.30
68743;BMP180;55725;42.758;26.702;2022-12-07T03:35:07;99229.00;;;5.90
68743;BMP180;55725;42.758;26.702;2022-12-07T03:36:51;99239.00;;;6.00
68743;BMP180;55725;42.758;26.702;2022-12-07T03:38:40;99239.00;;;5.60
68743;BMP180;55725;42.758;26.702;2022-12-07T03:42:05;99230.00;;;5.80
68743;BMP180;55725;42.758;26.702;2022-12-07T03:43:47;99240.00;;;5.70
68743;BMP180;55725;42.758;26.702;2022-12-07T03:45:50;99243.00;;;5.60
68743;BMP180;55725;42.758;26.702;2022-12-07T03:47:34;99246.00;;;5.90
68743;BMP180;55725;42.758;26.702;2022-12-07T03:54:19;99248.00;;;6.00
68743;BMP180;55725;42.758;26.702;2022-12-07T03:56:02;99250.00;;;6.00
68743;BMP180;55725;42.758;26.702;2022-12-07T03:57:43;99237.00;;;5.90
68743;BMP180;55725;42.758;26.702;2022-12-07T03:59:25;99241.00;;;5.90
68743;BMP180;55725;42.758;26.702;2022-12-07T04:01:06;99237.00;;;5.90
68743;BMP180;55725;42.758;26.702;2022-12-07T04:02:47;99242.00;;;6.00
68743;BMP180;55725;42.758;26.702;2022-12-07T04:04:27;99241.00;;;5.80
68743;BMP180;55725;42.758;26.702;2022-12-07T04:06:07;99244.00;;;5.70
68743;BMP180;55725;42.758;26.702;2022-12-07T04:07:48;99239.00;;;5.80
68743;BMP180;55725;42.758;26.702;2022-12-07T04:09:28;99244.00;;;5.90
68743;BMP180;55725;42.758;26.702;2022-12-07T04:11:08;99237.00;;;5.70
68743;BMP180;55725;42.758;26.702;2022-12-07T04:12:49;99238.00;;;5.60
68743;BMP180;55725;42.758;26.702;2022-12-07T04:14:29;99248.00;;;5.80
68743;BMP180;55725;42.758;26.702;2022-12-07T04:16:09;99235.00;;;6.00
68743;BMP180;55725;42.758;26.702;2022-12-07T04:17:49;99240.00;;;5.80
68743;BMP180;55725;42.758;26.702;2022-12-07T04:19:31;99210.00;;;5.90
68743;BMP180;55725;42.758;26.702;2022-12-07T04:21:12;99234.00;;;6.20
68743;BMP180;55725;42.758;26.702;2022-12-07T04:22:52;99224.00;;;5.90
68743;BMP180;55725;42.758;26.702;2022-12-07T04:24:33;99231.00;;;6.10
68743;BMP180;55725;42.758;26.702;2022-12-07T04:26:14;99226.00;;;5.50
68743;BMP180;55725;42.758;26.702;2022-12-07T04:27:54;99228.00;;;6.00
68743;BMP180;55725;42.758;26.702;2022-12-07T04:29:34;99232.00;;;6.10
68743;BMP180;55725;42.758;26.702;2022-12-07T04:31:14;99225.00;;;6.20
68743;BMP180;55725;42.758;26.702;2022-12-07T04:32:55;99230.00;;;6.20
68743;BMP180;55725;42.758;26.702;2022-12-07T04:34:35;99226.00;;;5.80
68743;BMP180;55725;42.758;26.702;2022-12-07T04:36:15;99237.00;;;6.00
68743;BMP180;55725;42.758;26.702;2022-12-07T04:37:56;99229.00;;;6.30
68743;BMP180;55725;42.758;26.702;2022-12-07T04:39:36;99237.00;;;6.20
68743;BMP180;55725;42.758;26.702;2022-12-07T04:41:16;99228.00;;;6.40
68743;BMP180;55725;42.758;26.702;2022-12-07T04:42:57;99235.00;;;6.40
68743;BMP180;55725;42.758;26.702;2022-12-07T04:44:37;99227.00;;;6.10
68743;BMP180;55725;42.758;26.702;2022-12-07T04:46:17;99230.00;;;6.00
68743;BMP180;55725;42.758;26.702;2022-12-07T04:47:57;99230.00;;;6.10
68743;BMP180;55725;42.758;26.702;2022-12-07T04:49:38;99235.00;;;6.30
68743;BMP180;55725;42.758;26.702;2022-12-07T04:51:19;99229.00;;;6.30
68743;BMP180;55725;42.758;26.702;2022-12-07T04:53:00;99231.00;;;6.50
68743;BMP180;55725;42.758;26.702;2022-12-07T04:54:40;99223.00;;;6.70
68743;BMP180;55725;42.758;26.702;2022-12-07T04:56:20;99225.00;;;6.60
68743;BMP180;55725;42.758;26.702;2022-12-07T04:58:01;99220.00;;;6.40
68743;BMP180;55725;42.758;26.702;2022-12-07T04:59:41;99221.00;;;6.20
68743;BMP180;55725;42.758;26.702;2022-12-07T05:01:21;99224.00;;;6.40
68743;BMP180;55725;42.758;26.702;2022-12-07T05:03:02;99231.00;;;6.40
68743;BMP180;55725;42.758;26.702;2022-12-07T05:04:42;99224.00;;;6.40
68743;BMP180;55725;42.758;26.702;2022-12-07T05:06:23;99221.00;;;6.50
68743;BMP180;55725;42.758;26.702;2022-12-07T05:08:03;99224.00;;;6.50
68743;BMP180;55725;42.758;26.702;2022-12-07T05:09:43;99219.00;;;6.50
68743;BMP180;55725;42.758;26.702;2022-12-07T05:11:24;99223.00;;;6.40
68743;BMP180;55725;42.758;26.702;2022-12-07T05:13:19;99222.00;;;6.00
68743;BMP180;55725;42.758;26.702;2022-12-07T05:14:59;99220.00;;;6.40
68743;BMP180;55725;42.758;26.702;2022-12-07T05:16:40;99226.00;;;6.60
68743;BMP180;55725;42.758;26.702;2022-12-07T05:18:20;99232.00;;;6.30
68743;BMP180;55725;42.758;26.702;2022-12-07T05:20:00;99230.00;;;6.40
68743;BMP180;55725;42.758;26.702;2022-12-07T05:21:41;99229.00;;;6.30
68743;BMP180;55725;42.758;26.702;2022-12-07T05:23:21;99233.00;;;6.40
68743;BMP180;55725;42.758;26.702;2022-12-07T05:25:01;99227.00;;;6.50
68743;BMP180;55725;42.758;26.702;2022-12-07T05:26:42;99220.00;;;6.40
68743;BMP180;55725;42.758;26.702;2022-12-07T05:28:22;99224.00;;;6.50
68743;BMP180;55725;42.758;26.702;2022-12-07T05:30:03;99217.00;;;6.00
68743;BMP180;55725;42.758;26.702;2022-12-07T05:31:43;99230.00;;;6.30
68743;BMP180;55725;42.758;26.702;2022-12-07T05:33:24;99231.00;;;6.30
68743;BMP180;55725;42.758;26.702;2022-12-07T05:35:04;99228.00;;;6.50
68743;BMP180;55725;42.758;26.702;2022-12-07T05:36:44;99225.00;;;6.60
68743;BMP180;55725;42.758;26.702;2022-12-07T05:38:25;99215.00;;;6.50
68743;BMP180;55725;42.758;26.702;2022-12-07T05:40:05;99226.00;;;6.50
68743;BMP180;55725;42.758;26.702;2022-12-07T05:41:46;99229.00;;;6.30
68743;BMP180;55725;42.758;26.702;2022-12-07T05:43:45;99232.00;;;6.20
68743;BMP180;55725;42.758;26.702;2022-12-07T05:45:25;99241.00;;;6.30
68743;BMP180;55725;42.758;26.702;2022-12-07T05:47:05;99223.00;;;6.50
68743;BMP180;55725;42.758;26.702;2022-12-07T05:48:46;99226.00;;;6.50
68743;BMP180;55725;42.758;26.702;2022-12-07T05:50:26;99229.00;;;6.20
68743;BMP180;55725;42.758;26.702;2022-12-07T05:52:07;99233.00;;;6.30
68743;BMP180;55725;42.758;26.702;2022-12-07T05:53:48;99231.00;;;6.60
68743;BMP180;55725;42.758;26.702;2022-12-07T05:55:28;99234.00;;;6.70
68743;BMP180;55725;42.758;26.702;2022-12-07T05:57:08;99231.00;;;6.70
68743;BMP180;55725;42.758;26.702;2022-12-07T05:58:49;99233.00;;;6.90
68743;BMP180;55725;42.758;26.702;2022-12-07T06:00:47;99235.00;;;6.90
68743;BMP180;55725;42.758;26.702;2022-12-07T06:02:28;99237.00;;;6.80
68743;BMP180;55725;42.758;26.702;2022-12-07T06:04:08;99243.00;;;6.90
68743;BMP180;55725;42.758;26.702;2022-12-07T06:05:48;99250.00;;;6.90
68743;BMP180;55725;42.758;26.702;2022-12-07T06:07:29;99241.00;;;7.00
68743;BMP180;55725;42.758;26.702;2022-12-07T06:09:09;99234.00;;;6.80
68743;BMP180;55725;42.758;26.702;2022-12-07T06:10:50;99246.00;;;7.00
68743;BMP180;55725;42.758;26.702;2022-12-07T06:12:50;99238.00;;;7.10
68743;BMP180;55725;42.758;26.702;2022-12-07T06:14:30;99237.00;;;7.20
68743;BMP180;55725;42.758;26.702;2022-12-07T06:16:11;99246.00;;;7.20
68743;BMP180;55725;42.758;26.702;2022-12-07T06:17:51;99239.00;;;7.20
68743;BMP180;55725;42.758;26.702;2022-12-07T06:19:31;99245.00;;;7.20
68743;BMP180;55725;42.758;26.702;2022-12-07T06:21:11;99246.00;;;7.30
68743;BMP180;55725;42.758;26.702;2022-12-07T06:22:52;99251.00;;;7.00
68743;BMP180;55725;42.758;26.702;2022-12-07T06:24:32;99252.00;;;6.80
68743;BMP180;55725;42.758;26.702;2022-12-07T06:26:13;99250.00;;;7.20
68743;BMP180;55725;42.758;26.702;2022-12-07T06:27:53;99243.00;;;7.00
68743;BMP180;55725;42.758;26.702;2022-12-07T06:29:35;99248.00;;;6.90
68743;BMP180;55725;42.758;26.702;2022-12-07T06:31:16;99235.00;;;6.90
68743;BMP180;55725;42.758;26.702;2022-12-07T06:32:56;99246.00;;;6.80
68743;BMP180;55725;42.758;26.702;2022-12-07T06:34:36;99241.00;;;6.80
68743;BMP180;55725;42.758;26.702;2022-12-07T06:36:16;99248.00;;;6.80
68743;BMP180;55725;42.758;26.702;2022-12-07T06:37:57;99240.00;;;6.50
68743;BMP180;55725;42.758;26.702;2022-12-07T06:39:37;99247.00;;;7.00
68743;BMP180;55725;42.758;26.702;2022-12-07T06:41:18;99236.00;;;7.10
68743;BMP180;55725;42.758;26.702;2022-12-07T06:42:59;99238.00;;;7.00
68743;BMP180;55725;42.758;26.702;2022-12-07T06:44:39;99238.00;;;7.20
68743;BMP180;55725;42.758;26.702;2022-12-07T06:46:19;99240.00;;;7.10
68743;BMP180;55725;42.758;26.702;2022-12-07T06:48:00;99245.00;;;6.90
68743;BMP180;55725;42.758;26.702;2022-12-07T06:49:40;99243.00;;;7.20
68743;BMP180;55725;42.758;26.702;2022-12-07T06:51:20;99238.00;;;7.30
68743;BMP180;55725;42.758;26.702;2022-12-07T06:53:00;99241.00;;;7.30
68743;BMP180;55725;42.758;26.702;2022-12-07T06:54:41;99247.00;;;7.20
68743;BMP180;55725;42.758;26.702;2022-12-07T06:56:21;99241.00;;;7.30
68743;BMP180;55725;42.758;26.702;2022-12-07T06:58:02;99242.00;;;7.20
68743;BMP180;55725;42.758;26.702;2022-12-07T06:59:43;99247.00;;;7.30
68743;BMP180;55725;42.758;26.702;2022-12-07T07:01:23;99244.00;;;7.20
68743;BMP180;55725;42.758;26.702;2022-12-07T07:03:04;99237.00;;;7.20
68743;BMP180;55725;42.758;26.702;2022-12-07T07:04:44;99237.00;;;7.20
68743;BMP180;55725;42.758;26.702;2022-12-07T07:06:24;99239.00;;;7.50
68743;BMP180;55725;42.758;26.702;2022-12-07T07:08:05;99239.00;;;7.30
68743;BMP180;55725;42.758;26.702;2022-12-07T07:09:45;99237.00;;;7.40
68743;BMP180;55725;42.758;26.702;2022-12-07T07:11:25;99233.00;;;7.50
68743;BMP180;55725;42.758;26.702;2022-12-07T07:13:06;99239.00;;;7.50
68743;BMP180;55725;42.758;26.702;2022-12-07T07:14:46;99236.00;;;7.70
68743;BMP180;55725;42.758;26.702;2022-12-07T07:16:27;99243.00;;;7.80
68743;BMP180;55725;42.758;26.702;2022-12-07T07:18:07;99237.00;;;7.70
68743;BMP180;55725;42.758;26.702;2022-12-07T07:19:47;99238.00;;;7.70
68743;BMP180;55725;42.758;26.702;2022-12-07T07:21:28;99235.00;;;7.80
68743;BMP180;55725;42.758;26.702;2022-12-07T07:23:08;99241.00;;;7.90
68743;BMP180;55725;42.758;26.702;2022-12-07T07:24:49;99246.00;;;7.90
68743;BMP180;55725;42.758;26.702;2022-12-07T07:26:29;99245.00;;;7.80
68743;BMP180;55725;42.758;26.702;2022-12-07T07:28:10;99248.00;;;7.60
68743;BMP180;55725;42.758;26.702;2022-12-07T07:29:50;99238.00;;;7.90
68743;BMP180;55725;42.758;26.702;2022-12-07T07:31:30;99238.00;;;8.00
68743;BMP180;55725;42.758;26.702;2022-12-07T07:33:11;99236.00;;;8.00
68743;BMP180;55725;42.758;26.702;2022-12-07T07:34:51;99239.00;;;8.00
68743;BMP180;55725;42.758;26.702;2022-12-07T07:36:32;99237.00;;;8.10
68743;BMP180;55725;42.758;26.702;2022-12-07T07:38:12;99232.00;;;8.00
68743;BMP180;55725;42.758;26.702;2022-12-07T07:39:53;99235.00;;;8.00
68743;BMP180;55725;42.758;26.702;2022-12-07T07:41:33;99238.00;;;8.00
68743;BMP180;55725;42.758;26.702;2022-12-07T07:43:13;99240.00;;;8.10
68743;BMP180;55725;42.758;26.702;2022-12-07T07:44:53;99245.00;;;8.00
68743;BMP180;55725;42.758;26.702;2022-12-07T07:46:35;99246.00;;;7.90
68743;BMP180;55725;42.758;26.702;2022-12-07T07:48:15;99252.00;;;8.00
68743;BMP180;55725;42.758;26.702;2022-12-07T07:49:56;99246.00;;;8.10
68743;BMP180;55725;42.758;26.702;2022-12-07T07:51:37;99241.00;;;8.00
68743;BMP180;55725;42.758;26.702;2022-12-07T07:53:17;99239.00;;;8.00
68743;BMP180;55725;42.758;26.702;2022-12-07T07:54:57;99240.00;;;8.30
68743;BMP180;55725;42.758;26.702;2022-12-07T07:56:38;99249.00;;;8.10
68743;BMP180;55725;42.758;26.702;2022-12-07T07:58:18;99242.00;;;8.40
68743;BMP180;55725;42.758;26.702;2022-12-07T07:59:58;99235.00;;;8.30
68743;BMP180;55725;42.758;26.702;2022-12-07T08:01:38;99223.00;;;8.30
68743;BMP180;55725;42.758;26.702;2022-12-07T08:03:19;99221.00;;;8.50
68743;BMP180;55725;42.758;26.702;2022-12-07T08:04:59;99220.00;;;8.70
68743;BMP180;55725;42.758;26.702;2022-12-07T08:06:40;99209.00;;;8.80
68743;BMP180;55725;42.758;26.702;2022-12-07T08:08:22;99211.00;;;8.80
68743;BMP180;55725;42.758;26.702;2022-12-07T08:10:02;99227.00;;;8.80
68743;BMP180;55725;42.758;26.702;2022-12-07T08:11:42;99221.00;;;8.50
68743;BMP180;55725;42.758;26.702;2022-12-07T08:13:23;99226.00;;;8.70
68743;BMP180;55725;42.758;26.702;2022-12-07T08:15:03;99219.00;;;8.70
68743;BMP180;55725;42.758;26.702;2022-12-07T08:16:44;99226.00;;;8.70
68743;BMP180;55725;42.758;26.702;2022-12-07T08:18:24;99213.00;;;8.60
68743;BMP180;55725;42.758;26.702;2022-12-07T08:20:04;99213.00;;;8.80
68743;BMP180;55725;42.758;26.702;2022-12-07T08:21:45;99217.00;;;9.20
68743;BMP180;55725;42.758;26.702;2022-12-07T08:23:25;99204.00;;;8.00
68743;BMP180;55725;42.758;26.702;2022-12-07T08:25:06;99214.00;;;9.30
68743;BMP180;55725;42.758;26.702;2022-12-07T08:26:46;99214.00;;;9.30
68743;BMP180;55725;42.758;26.702;2022-12-07T08:28:27;99226.00;;;9.30
68743;BMP180;55725;42.758;26.702;2022-12-07T08:30:08;99229.00;;;9.20
68743;BMP180;55725;42.758;26.702;2022-12-07T08:31:48;99211.00;;;9.10
68743;BMP180;55725;42.758;26.702;2022-12-07T08:33:28;99208.00;;;9.30
68743;BMP180;55725;42.758;26.702;2022-12-07T08:35:09;99204.00;;;9.50
68743;BMP180;55725;42.758;26.702;2022-12-07T08:36:49;99202.00;;;9.50
68743;BMP180;55725;42.758;26.702;2022-12-07T08:38:29;99194.00;;;9.80
68743;BMP180;55725;42.758;26.702;2022-12-07T08:40:10;99193.00;;;10.00
68743;BMP180;55725;42.758;26.702;2022-12-07T08:41:55;99195.00;;;10.00
68743;BMP180;55725;42.758;26.702;2022-12-07T08:43:35;99191.00;;;10.20
68743;BMP180;55725;42.758;26.702;2022-12-07T08:45:16;99192.00;;;10.30
68743;BMP180;55725;42.758;26.702;2022-12-07T08:46:58;99203.00;;;10.10
68743;BMP180;55725;42.758;26.702;2022-12-07T08:48:46;99181.00;;;9.70
68743;BMP180;55725;42.758;26.702;2022-12-07T08:50:28;99163.00;;;10.30
68743;BMP180;55725;42.758;26.702;2022-12-07T08:52:09;99153.00;;;10.70
68743;BMP180;55725;42.758;26.702;2022-12-07T08:53:49;99153.00;;;10.50
68743;BMP180;55725;42.758;26.702;2022-12-07T08:55:31;99159.00;;;10.30
68743;BMP180;55725;42.758;26.702;2022-12-07T08:57:11;99154.00;;;10.60
68743;BMP180;55725;42.758;26.702;2022-12-07T08:58:52;99142.00;;;10.60
68743;BMP180;55725;42.758;26.702;2022-12-07T09:00:32;99143.00;;;10.70
68743;BMP180;55725;42.758;26.702;2022-12-07T09:02:12;99148.00;;;11.00
68743;BMP180;55725;42.758;26.702;2022-12-07T09:03:53;99167.00;;;10.60
68743;BMP180;55725;42.758;26.702;2022-12-07T09:05:33;99155.00;;;10.90
68743;BMP180;55725;42.758;26.702;2022-12-07T09:07:14;99143.00;;;11.60
68743;BMP180;55725;42.758;26.702;2022-12-07T09:08:56;99141.00;;;11.70
68743;BMP180;55725;42.758;26.702;2022-12-07T09:10:38;99131.00;;;11.60
68743;BMP180;55725;42.758;26.702;2022-12-07T09:12:18;99124.00;;;11.70
68743;BMP180;55725;42.758;26.702;2022-12-07T09:13:58;99113.00;;;11.90
68743;BMP180;55725;42.758;26.702;2022-12-07T09:15:39;99116.00;;;12.30
68743;BMP180;55725;42.758;26.702;2022-12-07T09:17:19;99117.00;;;11.60
68743;BMP180;55725;42.758;26.702;2022-12-07T09:18:59;99112.00;;;11.60
68743;BMP180;55725;42.758;26.702;2022-12-07T09:20:40;99128.00;;;11.10
68743;BMP180;55725;42.758;26.702;2022-12-07T09:22:20;99126.00;;;12.00
68743;BMP180;55725;42.758;26.702;2022-12-07T09:24:00;99122.00;;;11.70
68743;BMP180;55725;42.758;26.702;2022-12-07T09:25:41;99120.00;;;12.10
68743;BMP180;55725;42.758;26.702;2022-12-07T09:27:21;99115.00;;;12.30
68743;BMP180;55725;42.758;26.702;2022-12-07T09:29:02;99120.00;;;11.30
68743;BMP180;55725;42.758;26.702;2022-12-07T09:30:49;99127.00;;;11.40
68743;BMP180;55725;42.758;26.702;2022-12-07T09:32:29;99116.00;;;11.80
68743;BMP180;55725;42.758;26.702;2022-12-07T09:34:09;99111.00;;;11.40
68743;BMP180;55725;42.758;26.702;2022-12-07T09:35:50;99155.00;;;11.20
68743;BMP180;55725;42.758;26.702;2022-12-07T09:37:31;99108.00;;;11.20
68743;BMP180;55725;42.758;26.702;2022-12-07T09:39:15;99101.00;;;11.70
68743;BMP180;55725;42.758;26.702;2022-12-07T09:40:55;99146.00;;;11.60
68743;BMP180;55725;42.758;26.702;2022-12-07T09:42:37;99087.00;;;11.20
68743;BMP180;55725;42.758;26.702;2022-12-07T09:44:28;99132.00;;;10.90
68743;BMP180;55725;42.758;26.702;2022-12-07T09:46:10;99087.00;;;11.40
68743;BMP180;55725;42.758;26.702;2022-12-07T09:47:53;99086.00;;;11.30
68743;BMP180;55725;42.758;26.702;2022-12-07T09:49:33;99116.00;;;11.20
68743;BMP180;55725;42.758;26.702;2022-12-07T09:51:18;99073.00;;;11.70
68743;BMP180;55725;42.758;26.702;2022-12-07T09:53:08;99071.00;;;11.30
68743;BMP180;55725;42.758;26.702;2022-12-07T09:54:49;99077.00;;;11.50
68743;BMP180;55725;42.758;26.702;2022-12-07T09:56:30;99082.00;;;11.90
68743;BMP180;55725;42.758;26.702;2022-12-07T09:58:17;99094.00;;;11.60
68743;BMP180;55725;42.758;26.702;2022-12-07T10:00:00;99084.00;;;11.40
68743;BMP180;55725;42.758;26.702;2022-12-07T10:01:41;99091.00;;;11.40
68743;BMP180;55725;42.758;26.702;2022-12-07T10:03:21;99095.00;;;11.00
68743;BMP180;55725;42.758;26.702;2022-12-07T10:05:03;99097.00;;;11.20
68743;BMP180;55725;42.758;26.702;2022-12-07T10:06:44;99101.00;;;11.20
68743;BMP180;55725;42.758;26.702;2022-12-07T10:08:25;99106.00;;;11.20
68743;BMP180;55725;42.758;26.702;2022-12-07T10:10:53;99093.00;;;11.20
68743;BMP180;55725;42.758;26.702;2022-12-07T10:12:09;99088.00;;;11.30
68743;BMP180;55725;42.758;26.702;2022-12-07T10:13:51;99094.00;;;11.50